Time;durP1;ratioP1;P1;durP2;ratioP2;P2;SDS_P1;SDS_P2;PMS_P1;PMS_P2;Temp;Humidity;BMP_temperature;BMP_pressure;BME280_temperature;BME280_humidity;BME280_pressure;Samples;Min_cycle;Max_cycle;Signal;HPM_P1;HPM_P2
2023/02/26 00:00:13;;;;;;;2.53;2.03;;;7.80;51.20;;;;;;5035741;28;20196;-49
2023/02/26 00:02:41;;;;;;;2.90;1.97;;;7.80;51.00;;;;;;5032554;28;20391;-50
2023/02/26 00:05:07;;;;;;;4.47;1.80;;;7.70;50.70;;;;;;5039144;28;20608;-49
2023/02/26 00:07:33;;;;;;;7.10;1.83;;;7.70;50.60;;;;;;5037299;28;20470;-48
2023/02/26 00:10:00;;;;;;;2.77;1.70;;;7.70;50.60;;;;;;5031879;28;20456;-50
2023/02/26 00:12:26;;;;;;;2.87;1.57;;;7.70;50.50;;;;;;5032505;28;20286;-49
2023/02/26 00:14:52;;;;;;;2.37;2.00;;;7.70;50.40;;;;;;5031524;28;20478;-49
2023/02/26 00:17:26;;;;;;;2.67;1.87;;;7.60;50.30;;;;;;5036310;28;20185;-48
2023/02/26 00:19:52;;;;;;;2.30;2.00;;;7.50;50.20;;;;;;5033986;28;20448;-49
2023/02/26 00:22:18;;;;;;;2.27;2.10;;;7.50;50.30;;;;;;5045215;28;20449;-49
2023/02/26 00:24:43;;;;;;;2.60;1.77;;;7.50;50.20;;;;;;5033584;28;20443;-52
2023/02/26 00:27:10;;;;;;;2.87;2.23;;;7.50;50.20;;;;;;5031032;28;20435;-52
2023/02/26 00:29:37;;;;;;;2.37;2.00;;;7.50;50.20;;;;;;5033871;28;20836;-51
2023/02/26 00:32:03;;;;;;;3.97;2.17;;;7.50;50.30;;;;;;5044374;28;20541;-49
2023/02/26 00:34:29;;;;;;;3.73;2.03;;;7.40;50.10;;;;;;5036163;28;20489;-50
2023/02/26 00:37:16;;;;;;;4.00;1.83;;;7.40;49.90;;;;;;5036789;28;20863;-50
2023/02/26 00:40:05;;;;;;;4.73;2.10;;;7.40;50.10;;;;;;5029568;28;20455;-53
2023/02/26 00:42:34;;;;;;;3.07;2.10;;;7.30;49.90;;;;;;5037386;28;20792;-53
2023/02/26 00:45:00;;;;;;;3.00;1.97;;;7.20;50.00;;;;;;5033450;28;20849;-54
2023/02/26 00:47:38;;;;;;;6.40;2.27;;;7.10;50.10;;;;;;5034239;28;20534;-54
2023/02/26 00:50:24;;;;;;;2.93;2.10;;;7.10;50.20;;;;;;5031182;28;20451;-53
2023/02/26 00:53:08;;;;;;;3.93;2.20;;;7.10;50.20;;;;;;5027951;28;20526;-53
2023/02/26 00:55:34;;;;;;;2.90;2.20;;;7.00;50.20;;;;;;5030560;28;20456;-53
2023/02/26 00:57:59;;;;;;;3.57;2.20;;;7.00;49.90;;;;;;5031518;28;20491;-54
2023/02/26 01:00:25;;;;;;;2.73;2.37;;;7.00;49.90;;;;;;5033331;28;20245;-54
2023/02/26 01:02:51;;;;;;;3.13;2.20;;;6.90;49.90;;;;;;5035803;28;20232;-53
2023/02/26 01:05:17;;;;;;;3.53;2.20;;;6.80;50.10;;;;;;5039763;28;20435;-55
2023/02/26 01:08:10;;;;;;;3.47;1.83;;;6.80;50.30;;;;;;5026882;28;20448;-54
2023/02/26 01:10:36;;;;;;;2.63;2.13;;;6.80;50.40;;;;;;5023730;28;20544;-55
2023/02/26 01:13:02;;;;;;;3.53;2.13;;;6.80;50.20;;;;;;5028742;28;20546;-54
2023/02/26 01:15:28;;;;;;;2.63;2.10;;;6.80;50.10;;;;;;5044727;28;20965;-53
2023/02/26 01:18:27;;;;;;;4.10;2.10;;;6.90;50.00;;;;;;5025186;28;20586;-53
2023/02/26 01:20:59;;;;;;;4.97;2.57;;;6.90;49.50;;;;;;5031441;28;20545;-54
2023/02/26 01:23:28;;;;;;;3.20;2.30;;;6.90;49.60;;;;;;5035139;28;20438;-53
2023/02/26 01:26:02;;;;;;;2.30;2.10;;;6.90;49.40;;;;;;5031598;28;20574;-51
2023/02/26 01:28:28;;;;;;;2.47;1.93;;;6.90;49.40;;;;;;5039029;28;20898;-52
2023/02/26 01:30:59;;;;;;;4.60;2.90;;;6.90;49.50;;;;;;5036752;28;20487;-51
2023/02/26 01:33:27;;;;;;;2.73;1.97;;;6.90;49.60;;;;;;5023644;28;20532;-52
2023/02/26 01:36:06;;;;;;;3.10;2.20;;;6.90;49.50;;;;;;5029294;28;20463;-53
2023/02/26 01:39:05;;;;;;;3.27;2.57;;;6.90;49.40;;;;;;5020158;28;20488;-49
2023/02/26 01:41:42;;;;;;;2.23;2.03;;;6.90;49.30;;;;;;5022871;28;20447;-49
2023/02/26 01:44:22;;;;;;;2.73;2.23;;;6.80;49.10;;;;;;5027612;28;20869;-52
2023/02/26 01:47:28;;;;;;;3.17;2.30;;;6.80;49.20;;;;;;5040602;28;20447;-53
2023/02/26 01:49:54;;;;;;;2.73;2.33;;;6.80;49.40;;;;;;5041575;28;20462;-54
2023/02/26 01:52:56;;;;;;;3.27;2.40;;;6.80;49.40;;;;;;5057975;28;20528;-50
2023/02/26 01:55:27;;;;;;;2.50;1.87;;;6.70;49.50;;;;;;5028977;28;20458;-53
2023/02/26 01:57:55;;;;;;;5.80;2.17;;;6.70;49.60;;;;;;5036902;28;20926;-50
2023/02/26 02:00:21;;;;;;;3.10;1.93;;;6.70;49.60;;;;;;5037319;28;20448;-52
2023/02/26 02:02:48;;;;;;;2.87;2.20;;;6.70;49.60;;;;;;5029056;28;20448;-49
2023/02/26 02:05:34;;;;;;;3.50;2.30;;;6.60;49.60;;;;;;5023985;28;21919;-50
2023/02/26 02:08:00;;;;;;;4.10;2.30;;;6.60;49.70;;;;;;5025486;28;20459;-49
2023/02/26 02:10:26;;;;;;;3.53;2.33;;;6.60;49.70;;;;;;5031937;28;20470;-50
2023/02/26 02:13:15;;;;;;;2.83;2.00;;;6.50;49.60;;;;;;5033782;28;20677;-53
2023/02/26 02:15:48;;;;;;;4.97;2.20;;;6.50;49.70;;;;;;5011680;28;20863;-51
2023/02/26 02:18:26;;;;;;;2.83;2.50;;;6.50;49.50;;;;;;5020846;28;20495;-51
2023/02/26 02:21:18;;;;;;;2.50;2.13;;;6.50;49.50;;;;;;5027403;28;20505;-49
2023/02/26 02:24:03;;;;;;;2.60;2.10;;;6.50;49.60;;;;;;5024098;28;20475;-51
2023/02/26 02:26:35;;;;;;;3.73;2.50;;;6.40;49.60;;;;;;5018037;28;20835;-52
2023/02/26 02:29:06;;;;;;;4.57;2.33;;;6.40;49.90;;;;;;5024810;28;20448;-52
2023/02/26 02:31:50;;;;;;;4.93;2.40;;;6.40;50.00;;;;;;5033818;28;20483;-52
2023/02/26 02:34:21;;;;;;;2.97;2.23;;;6.40;49.90;;;;;;5024812;28;20451;-52
2023/02/26 02:36:52;;;;;;;3.63;2.17;;;6.40;49.80;;;;;;5029694;28;20501;-53
2023/02/26 02:39:23;;;;;;;3.10;2.10;;;6.40;49.70;;;;;;5037167;28;20490;-51
2023/02/26 02:41:57;;;;;;;3.93;2.67;;;6.30;49.70;;;;;;5040185;28;21017;-51
2023/02/26 02:44:27;;;;;;;2.40;2.00;;;6.30;49.80;;;;;;5038777;28;20998;-52
2023/02/26 02:46:56;;;;;;;2.67;2.10;;;6.30;49.70;;;;;;5032494;28;20591;-52
2023/02/26 02:49:34;;;;;;;3.90;2.60;;;6.30;49.70;;;;;;5023715;28;20497;-49
2023/02/26 02:52:06;;;;;;;3.50;2.33;;;6.20;49.70;;;;;;5034181;28;20505;-50
2023/02/26 02:54:46;;;;;;;3.60;2.50;;;6.20;49.60;;;;;;5029083;28;20480;-53
2023/02/26 02:57:20;;;;;;;5.20;2.80;;;6.10;49.60;;;;;;5027773;28;20606;-53
2023/02/26 02:59:50;;;;;;;2.40;2.20;;;6.10;49.70;;;;;;5023252;28;21262;-53
2023/02/26 03:02:22;;;;;;;3.10;2.53;;;6.10;49.70;;;;;;5025199;28;20440;-54
2023/02/26 03:04:48;;;;;;;2.07;1.87;;;6.10;49.70;;;;;;5029424;28;20454;-51
2023/02/26 03:07:14;;;;;;;4.80;2.40;;;6.00;49.50;;;;;;5025457;28;20432;-51
2023/02/26 03:09:40;;;;;;;4.13;2.90;;;5.90;49.60;;;;;;5022910;28;20193;-49
2023/02/26 03:12:05;;;;;;;3.03;2.40;;;5.90;49.50;;;;;;5024454;28;20213;-51
2023/02/26 03:14:32;;;;;;;3.20;2.30;;;5.80;49.60;;;;;;5023195;28;20198;-52
2023/02/26 03:17:28;;;;;;;2.10;1.90;;;5.80;49.50;;;;;;5025663;28;20197;-52
2023/02/26 03:20:18;;;;;;;3.57;2.03;;;5.80;49.60;;;;;;5034258;28;20455;-55
2023/02/26 03:23:12;;;;;;;4.43;2.03;;;5.70;49.60;;;;;;5029864;28;20459;-54
2023/02/26 03:25:43;;;;;;;4.20;2.27;;;5.60;50.10;;;;;;5026432;28;20539;-51
2023/02/26 03:28:11;;;;;;;3.80;2.40;;;5.60;49.70;;;;;;5022661;28;21018;-54
2023/02/26 03:30:47;;;;;;;3.10;2.53;;;5.50;49.70;;;;;;5029142;28;20561;-51
2023/02/26 03:33:21;;;;;;;6.40;2.87;;;5.50;50.00;;;;;;5021215;28;20581;-53
2023/02/26 03:36:09;;;;;;;5.60;2.23;;;5.50;50.20;;;;;;5026663;28;20460;-54
2023/02/26 03:39:12;;;;;;;4.13;2.27;;;5.50;50.40;;;;;;5024077;28;20586;-54
2023/02/26 03:41:56;;;;;;;4.17;2.30;;;5.50;50.50;;;;;;4987609;28;20632;-53
2023/02/26 03:44:28;;;;;;;4.13;2.80;;;5.50;50.30;;;;;;5028499;28;20451;-53
2023/02/26 03:47:05;;;;;;;3.10;2.30;;;5.40;50.30;;;;;;5030062;28;20962;-53
2023/02/26 03:49:38;;;;;;;3.47;2.60;;;5.40;50.30;;;;;;5015619;28;20455;-53
2023/02/26 03:52:05;;;;;;;2.30;2.00;;;5.40;50.30;;;;;;5034327;28;20459;-55
2023/02/26 03:54:38;;;;;;;5.83;2.30;;;5.50;50.40;;;;;;5036973;28;21134;-51
2023/02/26 03:57:03;;;;;;;3.77;2.60;;;5.50;50.30;;;;;;5029536;28;20811;-55
2023/02/26 03:59:29;;;;;;;2.13;1.90;;;5.50;50.20;;;;;;5036863;28;20488;-53
2023/02/26 04:01:58;;;;;;;3.40;2.27;;;5.50;50.20;;;;;;5027690;28;20677;-50
2023/02/26 04:04:33;;;;;;;6.63;2.63;;;5.50;50.20;;;;;;5031382;28;20963;-50
2023/02/26 04:06:59;;;;;;;3.90;2.57;;;5.50;50.20;;;;;;5026446;28;20450;-54
2023/02/26 04:09:25;;;;;;;2.30;1.90;;;5.50;50.30;;;;;;5041700;28;20447;-53
2023/02/26 04:11:53;;;;;;;3.37;2.60;;;5.50;50.30;;;;;;5028285;28;20447;-51
2023/02/26 04:14:18;;;;;;;5.80;2.70;;;5.40;50.50;;;;;;5022511;28;20963;-51
2023/02/26 04:16:45;;;;;;;3.77;2.63;;;5.40;50.60;;;;;;5035260;28;20428;-51
2023/02/26 04:19:11;;;;;;;3.87;2.80;;;5.40;50.60;;;;;;5041055;28;20232;-55
2023/02/26 04:21:37;;;;;;;5.10;3.73;;;5.30;50.50;;;;;;5031969;28;20424;-53
2023/02/26 04:24:02;;;;;;;5.47;2.80;;;5.30;50.90;;;;;;5021768;28;20202;-51
2023/02/26 04:26:28;;;;;;;6.17;3.40;;;5.40;51.10;;;;;;5037950;28;20197;-52
2023/02/26 04:28:54;;;;;;;5.47;3.20;;;5.40;51.30;;;;;;5042958;28;20585;-54
2023/02/26 04:31:19;;;;;;;5.47;3.37;;;5.30;51.30;;;;;;5028993;28;20689;-53
2023/02/26 04:33:45;;;;;;;5.37;2.80;;;5.30;51.60;;;;;;5042686;28;20513;-51
2023/02/26 04:36:10;;;;;;;4.60;3.30;;;5.40;51.60;;;;;;5034081;28;20269;-50
2023/02/26 04:38:36;;;;;;;3.83;2.70;;;5.40;51.50;;;;;;5035670;28;20235;-51
2023/02/26 04:41:02;;;;;;;6.80;3.10;;;5.40;51.40;;;;;;5031973;28;20201;-54
2023/02/26 04:43:27;;;;;;;8.50;3.10;;;5.40;51.20;;;;;;5035034;28;20959;-54
2023/02/26 04:45:53;;;;;;;5.30;2.57;;;5.40;51.20;;;;;;5028617;28;20221;-51
2023/02/26 04:48:19;;;;;;;3.20;2.43;;;5.40;51.10;;;;;;5031438;28;20204;-51
2023/02/26 04:50:44;;;;;;;4.00;2.50;;;5.50;51.00;;;;;;5035721;28;20628;-50
2023/02/26 04:53:10;;;;;;;4.37;2.97;;;5.50;51.00;;;;;;5026353;28;20197;-55
2023/02/26 04:55:35;;;;;;;4.57;2.93;;;5.50;50.80;;;;;;5022323;28;20196;-52
2023/02/26 04:58:02;;;;;;;3.90;2.70;;;5.50;50.90;;;;;;5025047;28;20287;-53
2023/02/26 05:00:28;;;;;;;4.90;2.90;;;5.40;50.90;;;;;;5025694;28;20204;-51
2023/02/26 05:02:53;;;;;;;3.20;2.77;;;5.40;50.90;;;;;;5024061;28;20907;-54
2023/02/26 05:05:19;;;;;;;3.70;2.60;;;5.40;50.70;;;;;;5020033;28;20196;-52
2023/02/26 05:07:44;;;;;;;3.17;2.20;;;5.30;50.30;;;;;;5033042;28;20268;-51
2023/02/26 05:10:11;;;;;;;3.27;2.70;;;5.30;50.20;;;;;;5036223;28;20201;-50
2023/02/26 05:12:36;;;;;;;2.60;2.40;;;5.30;50.20;;;;;;5045798;28;20227;-54
2023/02/26 05:15:03;;;;;;;5.20;2.30;;;5.30;50.00;;;;;;5040302;28;20475;-52
2023/02/26 05:17:29;;;;;;;3.07;2.30;;;5.20;50.20;;;;;;5027119;28;20559;-51
2023/02/26 05:19:54;;;;;;;6.10;2.27;;;5.20;50.20;;;;;;5031142;28;20494;-54
2023/02/26 05:22:20;;;;;;;5.60;2.50;;;5.10;50.10;;;;;;5028714;28;20209;-54
2023/02/26 05:24:46;;;;;;;4.70;2.73;;;5.10;50.20;;;;;;5032603;28;20200;-51
2023/02/26 05:27:12;;;;;;;3.10;2.30;;;5.00;50.20;;;;;;5024841;28;20248;-51
2023/02/26 05:29:39;;;;;;;3.50;2.40;;;5.00;50.30;;;;;;5017253;28;20193;-51
2023/02/26 05:32:05;;;;;;;3.87;2.20;;;5.00;50.30;;;;;;5024581;28;20587;-51
2023/02/26 05:34:30;;;;;;;3.10;2.70;;;4.90;50.30;;;;;;5039125;28;20541;-53
2023/02/26 05:36:56;;;;;;;3.13;2.30;;;4.90;50.30;;;;;;5017431;28;20208;-51
2023/02/26 05:39:22;;;;;;;5.93;2.40;;;4.90;50.30;;;;;;5021128;28;20239;-53
2023/02/26 05:41:48;;;;;;;2.40;1.90;;;4.90;50.20;;;;;;5027687;28;20948;-54
2023/02/26 05:44:13;;;;;;;4.47;2.40;;;4.80;50.10;;;;;;5022455;28;20224;-51
2023/02/26 05:46:39;;;;;;;4.10;2.43;;;4.80;50.10;;;;;;5026851;28;20442;-52
2023/02/26 05:49:04;;;;;;;2.70;2.50;;;4.80;50.10;;;;;;5031374;28;20673;-50
2023/02/26 05:51:30;;;;;;;3.10;1.90;;;4.70;50.00;;;;;;5034337;28;20193;-53
2023/02/26 05:53:55;;;;;;;3.83;2.30;;;4.70;50.00;;;;;;5031634;28;20204;-54
2023/02/26 05:56:21;;;;;;;5.57;2.30;;;4.60;49.90;;;;;;5032631;28;20559;-50
2023/02/26 05:58:47;;;;;;;3.83;2.50;;;4.60;50.00;;;;;;5036776;28;20233;-51
2023/02/26 06:01:13;;;;;;;4.13;2.50;;;4.50;50.10;;;;;;5033295;28;20186;-53
2023/02/26 06:03:43;;;;;;;4.37;2.47;;;4.50;50.20;;;;;;5030094;28;20567;-53
2023/02/26 06:06:10;;;;;;;2.27;2.00;;;4.50;50.20;;;;;;5030902;28;20436;-54
2023/02/26 06:08:35;;;;;;;6.50;3.20;;;4.40;50.20;;;;;;5024151;28;21114;-52
2023/02/26 06:11:01;;;;;;;3.40;2.70;;;4.40;50.30;;;;;;5035936;28;20443;-52
2023/02/26 06:13:27;;;;;;;3.53;2.57;;;4.40;50.50;;;;;;5034635;28;20661;-51
2023/02/26 06:15:52;;;;;;;4.20;2.50;;;4.40;50.50;;;;;;5025436;28;20206;-54
2023/02/26 06:18:18;;;;;;;2.80;2.50;;;4.40;50.60;;;;;;5033862;28;20228;-54
2023/02/26 06:20:44;;;;;;;2.87;2.40;;;4.60;54.70;;;;;;5033989;28;20193;-53
2023/02/26 06:23:09;;;;;;;11.93;2.40;;;5.00;56.60;;;;;;5034868;28;20202;-54
2023/02/26 06:25:35;;;;;;;4.87;2.40;;;5.50;55.90;;;;;;5034161;28;20244;-53
2023/02/26 06:28:00;;;;;;;2.77;2.57;;;5.90;55.40;;;;;;5033861;28;20193;-54
2023/02/26 06:30:26;;;;;;;5.63;2.30;;;6.20;53.70;;;;;;5040863;28;20189;-52
2023/02/26 06:32:52;;;;;;;3.37;3.03;;;6.40;51.50;;;;;;5033246;28;20196;-54
2023/02/26 06:35:17;;;;;;;3.63;3.30;;;6.70;51.60;;;;;;5034418;28;20281;-52
2023/02/26 06:37:43;;;;;;;3.13;2.30;;;6.90;50.50;;;;;;5034039;28;20228;-51
2023/02/26 06:40:10;;;;;;;3.70;3.40;;;7.10;49.20;;;;;;5031106;28;20221;-51
2023/02/26 06:42:36;;;;;;;3.43;3.13;;;7.10;48.50;;;;;;5044932;28;20452;-52
2023/02/26 06:45:02;;;;;;;4.03;3.37;;;7.30;48.90;;;;;;5028889;28;20757;-55
2023/02/26 06:47:27;;;;;;;5.00;3.83;;;7.40;48.60;;;;;;5039762;28;20192;-55
2023/02/26 06:49:53;;;;;;;5.10;3.20;;;7.60;48.00;;;;;;5031262;28;20446;-51
2023/02/26 06:52:19;;;;;;;3.87;3.40;;;7.70;47.60;;;;;;5032036;28;20208;-54
2023/02/26 06:54:44;;;;;;;3.50;3.20;;;7.80;47.00;;;;;;5025339;28;20562;-53
2023/02/26 06:57:10;;;;;;;3.63;1.97;;;7.80;46.60;;;;;;5035727;28;20201;-55
2023/02/26 06:59:35;;;;;;;4.07;3.03;;;7.80;46.40;;;;;;5030930;28;20565;-52
2023/02/26 07:02:01;;;;;;;4.10;3.23;;;7.80;46.30;;;;;;5034921;28;20197;-49
2023/02/26 07:04:26;;;;;;;5.77;2.80;;;7.90;46.50;;;;;;5033565;28;20721;-51
2023/02/26 07:06:52;;;;;;;2.87;2.17;;;7.90;46.10;;;;;;5034157;28;20197;-50
2023/02/26 07:09:20;;;;;;;3.00;2.67;;;7.70;45.80;;;;;;5033289;28;20255;-50
2023/02/26 07:11:46;;;;;;;3.50;3.20;;;7.50;45.90;;;;;;5030044;28;20197;-53
2023/02/26 07:14:11;;;;;;;3.50;2.80;;;7.30;46.50;;;;;;5033844;28;20440;-50
2023/02/26 07:16:37;;;;;;;3.33;3.03;;;7.20;46.90;;;;;;5034876;28;20243;-50
2023/02/26 07:19:03;;;;;;;4.90;2.77;;;7.10;47.40;;;;;;5034768;28;20248;-50
2023/02/26 07:21:28;;;;;;;6.17;3.47;;;7.10;47.70;;;;;;5028211;28;20239;-51
2023/02/26 07:23:54;;;;;;;6.43;4.30;;;7.00;48.00;;;;;;5035361;28;20196;-51
2023/02/26 07:26:20;;;;;;;7.40;3.17;;;6.90;48.20;;;;;;5030871;28;20359;-51
2023/02/26 07:28:46;;;;;;;2.67;2.30;;;6.90;48.50;;;;;;5027755;28;20193;-55
2023/02/26 07:31:11;;;;;;;3.50;2.60;;;6.90;48.70;;;;;;5030562;28;20471;-52
2023/02/26 07:33:38;;;;;;;3.90;2.20;;;6.90;48.50;;;;;;5027813;28;20200;-51
2023/02/26 07:36:04;;;;;;;3.87;3.00;;;6.80;48.30;;;;;;5026286;28;20525;-51
2023/02/26 07:38:30;;;;;;;4.30;2.70;;;6.80;48.30;;;;;;5021814;28;20563;-54
2023/02/26 07:40:56;;;;;;;4.90;2.70;;;6.70;48.20;;;;;;5028909;28;20538;-51
2023/02/26 07:43:22;;;;;;;2.90;1.83;;;6.50;48.50;;;;;;5031400;28;20190;-53
2023/02/26 07:45:51;;;;;;;2.17;1.50;;;6.30;48.90;;;;;;5029471;28;20443;-51
2023/02/26 07:48:17;;;;;;;2.70;1.70;;;6.10;50.40;;;;;;5023722;28;20947;-52
2023/02/26 07:50:43;;;;;;;3.93;2.40;;;6.00;51.90;;;;;;5041322;28;20443;-51
2023/02/26 07:53:09;;;;;;;3.27;3.07;;;6.00;53.00;;;;;;5041568;28;20188;-51
2023/02/26 07:55:34;;;;;;;4.03;2.50;;;6.10;53.70;;;;;;5039567;28;20443;-51
2023/02/26 07:58:00;;;;;;;3.57;3.27;;;6.30;53.90;;;;;;5030357;28;20304;-50
2023/02/26 08:00:26;;;;;;;3.20;2.10;;;6.40;53.30;;;;;;5028558;28;20196;-52
2023/02/26 08:02:51;;;;;;;5.80;2.47;;;6.60;53.20;;;;;;5030932;28;20193;-50
2023/02/26 08:05:17;;;;;;;4.40;1.90;;;6.60;52.40;;;;;;5032345;28;20185;-51
2023/02/26 08:07:42;;;;;;;3.63;3.30;;;6.60;52.40;;;;;;5035795;28;20227;-50
2023/02/26 08:10:09;;;;;;;3.10;2.33;;;6.70;52.00;;;;;;5036620;28;20232;-52
2023/02/26 08:12:35;;;;;;;8.70;2.57;;;6.60;51.80;;;;;;5030284;28;20228;-53
2023/02/26 08:15:01;;;;;;;3.67;2.80;;;6.50;52.40;;;;;;5031406;28;20983;-50
2023/02/26 08:17:27;;;;;;;6.50;3.17;;;6.60;52.70;;;;;;5028609;28;20495;-50
2023/02/26 08:19:52;;;;;;;3.70;2.30;;;6.60;52.60;;;;;;5035554;28;20198;-50
2023/02/26 08:22:18;;;;;;;3.47;2.07;;;6.50;52.00;;;;;;5034195;28;20192;-50
2023/02/26 08:24:44;;;;;;;3.03;1.80;;;6.20;52.60;;;;;;5031355;28;20220;-52
2023/02/26 08:27:10;;;;;;;5.00;2.47;;;6.10;53.50;;;;;;5032008;28;20463;-50
2023/02/26 08:29:35;;;;;;;3.23;2.70;;;6.30;54.10;;;;;;5030428;28;20563;-50
2023/02/26 08:32:01;;;;;;;6.60;2.93;;;6.50;54.20;;;;;;5031811;28;20468;-51
2023/02/26 08:34:27;;;;;;;4.37;2.40;;;6.60;53.50;;;;;;5033769;28;20185;-50
2023/02/26 08:36:52;;;;;;;2.90;2.60;;;6.60;53.20;;;;;;5032987;28;20193;-53
2023/02/26 08:39:18;;;;;;;3.00;2.70;;;6.50;53.10;;;;;;5032750;28;20599;-50
2023/02/26 08:41:44;;;;;;;3.50;2.77;;;6.50;52.80;;;;;;5034938;28;20677;-49
2023/02/26 08:44:10;;;;;;;6.23;2.10;;;6.60;52.60;;;;;;5030124;28;20475;-49
2023/02/26 08:46:36;;;;;;;2.60;2.23;;;6.60;52.40;;;;;;5029955;28;20553;-51
2023/02/26 08:49:02;;;;;;;4.07;1.80;;;6.40;52.10;;;;;;5030808;28;20268;-50
2023/02/26 08:51:28;;;;;;;4.10;3.30;;;6.30;52.70;;;;;;5031500;28;20220;-50
2023/02/26 08:53:53;;;;;;;3.20;2.70;;;6.30;52.60;;;;;;5029390;28;20451;-54
2023/02/26 08:56:19;;;;;;;5.80;2.93;;;6.20;52.70;;;;;;5023995;28;20750;-50
2023/02/26 08:58:45;;;;;;;4.07;3.10;;;6.10;53.10;;;;;;5030945;28;20228;-50
2023/02/26 09:01:10;;;;;;;3.70;2.77;;;6.20;53.50;;;;;;5031125;28;20185;-50
2023/02/26 09:03:36;;;;;;;6.70;2.53;;;6.30;53.40;;;;;;5030805;28;20193;-51
2023/02/26 09:06:03;;;;;;;3.00;2.03;;;6.40;53.40;;;;;;5043384;28;20254;-49
2023/02/26 09:08:32;;;;;;;3.67;2.23;;;6.50;53.40;;;;;;5033157;28;20197;-50
2023/02/26 09:11:00;;;;;;;2.57;2.37;;;6.50;52.80;;;;;;5041996;28;20505;-49
2023/02/26 09:13:26;;;;;;;2.37;2.00;;;6.60;53.00;;;;;;5030100;28;20451;-52
2023/02/26 09:15:51;;;;;;;3.30;2.27;;;6.70;53.10;;;;;;5032345;28;20514;-50
2023/02/26 09:18:17;;;;;;;3.13;1.80;;;6.70;52.70;;;;;;5039259;28;21173;-50
2023/02/26 09:20:43;;;;;;;5.00;2.30;;;6.80;52.90;;;;;;5047405;28;20192;-50
2023/02/26 09:23:09;;;;;;;2.60;2.10;;;6.80;52.90;;;;;;5025046;28;20189;-53
2023/02/26 09:25:35;;;;;;;2.70;2.30;;;6.70;52.80;;;;;;5030217;28;20451;-50
2023/02/26 09:28:01;;;;;;;2.60;1.67;;;6.70;52.70;;;;;;5044348;28;20446;-51
2023/02/26 09:30:26;;;;;;;3.00;1.70;;;6.70;52.90;;;;;;5045173;28;20359;-52
2023/02/26 09:32:52;;;;;;;3.53;1.80;;;6.30;52.60;;;;;;5041903;28;20195;-51
2023/02/26 09:35:18;;;;;;;2.07;1.50;;;6.00;53.00;;;;;;5020969;28;20198;-51
2023/02/26 09:37:43;;;;;;;4.73;1.77;;;6.00;53.00;;;;;;5025211;28;20315;-53
2023/02/26 09:40:41;;;;;;;6.70;1.80;;;5.90;53.60;;;;;;5038302;28;20197;-50
2023/02/26 09:43:28;;;;;;;4.57;2.10;;;5.90;54.00;;;;;;5025590;28;20610;-50
2023/02/26 09:45:57;;;;;;;4.23;2.30;;;6.10;54.50;;;;;;5029320;28;20443;-51
2023/02/26 09:48:24;;;;;;;3.97;1.97;;;6.00;53.90;;;;;;5023100;28;20518;-50
2023/02/26 09:50:54;;;;;;;3.93;1.67;;;6.10;53.90;;;;;;5028618;28;20455;-52
2023/02/26 09:53:33;;;;;;;2.73;1.40;;;5.90;53.40;;;;;;5030859;28;20451;-51
2023/02/26 09:56:08;;;;;;;2.47;1.50;;;5.90;54.10;;;;;;5028026;28;20440;-53
2023/02/26 09:58:37;;;;;;;2.77;1.90;;;6.00;54.40;;;;;;5023720;28;20494;-52
2023/02/26 10:01:28;;;;;;;2.07;1.50;;;6.00;54.50;;;;;;5023435;28;20459;-53
2023/02/26 10:04:15;;;;;;;3.10;1.13;;;6.10;54.20;;;;;;5025792;28;20463;-53
2023/02/26 10:07:07;;;;;;;9.80;1.60;;;6.00;54.40;;;;;;5027190;28;21015;-54
2023/02/26 10:10:11;;;;;;;2.60;1.50;;;6.00;54.20;;;;;;5021740;28;20546;-53
2023/02/26 10:12:40;;;;;;;2.77;1.80;;;6.10;54.20;;;;;;5026626;28;20594;-54
2023/02/26 10:15:27;;;;;;;2.33;2.13;;;6.00;54.20;;;;;;5026628;28;20522;-51
2023/02/26 10:18:17;;;;;;;2.17;1.50;;;5.90;53.90;;;;;;5028721;28;20480;-53
2023/02/26 10:21:08;;;;;;;2.13;1.23;;;6.00;55.20;;;;;;5031119;28;20511;-54
2023/02/26 10:23:42;;;;;;;3.07;1.67;;;6.20;54.60;;;;;;5024328;28;20456;-53
2023/02/26 10:26:42;;;;;;;3.60;1.57;;;6.20;54.10;;;;;;5025552;28;20514;-53
2023/02/26 10:29:31;;;;;;;3.10;1.50;;;6.10;53.90;;;;;;5025518;28;20463;-52
2023/02/26 10:32:19;;;;;;;2.20;2.00;;;6.10;53.90;;;;;;5023839;28;21006;-53
2023/02/26 10:34:49;;;;;;;5.93;2.07;;;5.80;53.90;;;;;;5023966;28;20490;-52
2023/02/26 10:37:24;;;;;;;3.60;2.20;;;5.70;53.60;;;;;;5021224;28;20451;-51
2023/02/26 10:40:12;;;;;;;2.20;1.90;;;5.70;53.70;;;;;;5023353;28;20899;-52
2023/02/26 10:42:46;;;;;;;2.47;1.57;;;5.70;54.20;;;;;;5028475;28;20444;-50
2023/02/26 10:45:26;;;;;;;2.20;1.40;;;5.90;54.40;;;;;;5030665;28;20510;-50
2023/02/26 10:48:08;;;;;;;5.33;1.60;;;6.00;53.70;;;;;;5028005;28;20466;-50
2023/02/26 10:50:34;;;;;;;2.47;1.53;;;6.10;53.30;;;;;;5027685;28;20447;-50
2023/02/26 10:53:01;;;;;;;3.50;1.80;;;6.10;53.50;;;;;;5031391;28;20962;-50
2023/02/26 10:56:01;;;;;;;2.37;1.40;;;5.70;53.00;;;;;;5021270;28;20444;-53
2023/02/26 10:58:26;;;;;;;2.50;1.40;;;5.60;53.40;;;;;;5020319;28;20575;-52
2023/02/26 11:00:54;;;;;;;2.83;1.50;;;5.80;54.10;;;;;;5025136;28;20543;-54
2023/02/26 11:03:33;;;;;;;2.00;1.43;;;5.90;53.90;;;;;;5024038;28;20272;-51
2023/02/26 11:06:02;;;;;;;1.47;1.37;;;5.90;54.40;;;;;;5027369;28;20502;-50
2023/02/26 11:08:44;;;;;;;2.17;1.70;;;6.30;55.00;;;;;;5027701;28;20822;-51
2023/02/26 11:11:09;;;;;;;1.73;1.63;;;6.20;54.30;;;;;;5028590;28;20440;-53
2023/02/26 11:13:37;;;;;;;3.00;1.40;;;6.50;54.90;;;;;;5028234;28;20444;-50
2023/02/26 11:16:15;;;;;;;3.80;1.73;;;6.60;53.90;;;;;;5024932;28;20189;-53
2023/02/26 11:18:47;;;;;;;1.70;1.60;;;6.70;54.20;;;;;;5031165;28;20486;-54
2023/02/26 11:21:26;;;;;;;1.83;1.30;;;6.80;53.20;;;;;;5024371;28;20450;-52
2023/02/26 11:24:01;;;;;;;1.60;1.50;;;7.00;53.30;;;;;;5022600;28;20511;-54
2023/02/26 11:26:33;;;;;;;2.13;1.73;;;6.80;52.20;;;;;;5021971;28;20455;-53
2023/02/26 11:28:59;;;;;;;1.50;1.40;;;6.90;52.50;;;;;;5025342;28;20451;-55
2023/02/26 11:31:26;;;;;;;2.90;1.40;;;6.40;51.50;;;;;;5025720;28;20526;-52
2023/02/26 11:34:07;;;;;;;1.30;1.20;;;6.40;52.40;;;;;;5034064;28;20437;-53
2023/02/26 11:36:36;;;;;;;1.13;1.13;;;6.50;53.60;;;;;;5035002;28;20495;-51
2023/02/26 11:39:17;;;;;;;2.23;1.80;;;6.80;52.40;;;;;;5037892;28;20491;-54
2023/02/26 11:41:45;;;;;;;1.43;1.33;;;6.80;52.60;;;;;;5036691;28;20471;-55
2023/02/26 11:44:33;;;;;;;1.40;1.30;;;7.10;52.60;;;;;;5033513;28;20517;-53
2023/02/26 11:47:04;;;;;;;1.43;1.33;;;7.30;52.60;;;;;;5035459;28;20530;-53
2023/02/26 11:49:31;;;;;;;1.20;1.10;;;7.40;51.00;;;;;;5041396;28;20465;-54
2023/02/26 11:52:15;;;;;;;1.90;1.47;;;7.40;50.90;;;;;;5041124;28;20482;-54
2023/02/26 11:54:42;;;;;;;1.13;1.07;;;7.10;51.10;;;;;;5034364;28;20523;-54
2023/02/26 11:57:25;;;;;;;1.27;1.23;;;6.50;52.20;;;;;;5036096;28;20438;-55
2023/02/26 11:59:53;;;;;;;1.63;1.27;;;6.30;52.70;;;;;;5031438;28;20495;-53
2023/02/26 12:02:22;;;;;;;2.47;1.83;;;6.30;52.50;;;;;;5041814;28;20448;-54
2023/02/26 12:04:53;;;;;;;1.90;1.40;;;6.20;54.30;;;;;;5036399;28;20436;-51
2023/02/26 12:07:20;;;;;;;3.03;1.40;;;6.70;54.00;;;;;;5041929;28;21033;-54
2023/02/26 12:09:47;;;;;;;1.50;1.40;;;6.80;53.20;;;;;;5044195;28;20475;-52
2023/02/26 12:12:27;;;;;;;3.30;1.53;;;6.70;52.10;;;;;;5036020;28;20436;-50
2023/02/26 12:15:13;;;;;;;1.70;1.60;;;6.60;53.10;;;;;;5032171;28;20519;-52
2023/02/26 12:17:53;;;;;;;1.93;1.73;;;6.80;53.50;;;;;;5032032;28;20456;-54
2023/02/26 12:20:32;;;;;;;1.57;1.47;;;6.90;53.00;;;;;;5030747;28;20447;-54
2023/02/26 12:23:03;;;;;;;1.50;1.40;;;6.70;51.50;;;;;;5030333;28;20432;-52
2023/02/26 12:25:29;;;;;;;1.60;1.50;;;6.40;52.10;;;;;;5037232;28;20526;-53
2023/02/26 12:28:22;;;;;;;2.50;1.20;;;6.40;52.40;;;;;;5031222;28;20927;-50
2023/02/26 12:30:59;;;;;;;1.70;1.00;;;6.20;52.40;;;;;;5035704;28;20229;-54
2023/02/26 12:33:43;;;;;;;1.60;1.47;;;6.00;52.00;;;;;;5049642;28;20439;-54
2023/02/26 12:36:21;;;;;;;1.90;1.17;;;6.10;53.50;;;;;;5018569;28;20463;-54
2023/02/26 12:39:19;;;;;;;1.33;1.23;;;6.10;53.00;;;;;;5028502;28;20494;-53
2023/02/26 12:41:50;;;;;;;1.73;1.63;;;6.30;53.20;;;;;;5035983;28;20449;-51
2023/02/26 12:44:22;;;;;;;1.40;1.30;;;6.70;53.20;;;;;;5033084;28;20502;-54
2023/02/26 12:47:19;;;;;;;1.40;1.23;;;6.90;52.80;;;;;;5031392;28;20427;-54
2023/02/26 12:50:05;;;;;;;1.67;1.57;;;7.20;52.40;;;;;;5024381;28;20825;-52
2023/02/26 12:52:55;;;;;;;2.50;1.70;;;7.20;51.60;;;;;;5029476;28;20452;-54
2023/02/26 12:55:36;;;;;;;1.37;1.27;;;7.20;50.90;;;;;;5029376;28;20648;-55
2023/02/26 12:58:08;;;;;;;1.30;1.07;;;7.10;50.50;;;;;;5024717;28;20468;-54
2023/02/26 13:00:59;;;;;;;1.50;1.37;;;7.10;51.40;;;;;;5027064;28;20850;-54
2023/02/26 13:03:33;;;;;;;4.27;1.20;;;7.00;50.40;;;;;;5029209;28;20440;-54
2023/02/26 13:06:16;;;;;;;1.37;1.27;;;6.80;50.80;;;;;;5041068;28;20457;-52
2023/02/26 13:08:51;;;;;;;1.40;1.30;;;6.60;50.70;;;;;;5038933;28;20950;-53
2023/02/26 13:11:59;;;;;;;1.30;1.20;;;6.60;50.00;;;;;;5031401;28;20476;-51
2023/02/26 13:14:37;;;;;;;1.30;1.20;;;6.80;50.40;;;;;;4997624;28;20456;-53
2023/02/26 13:17:20;;;;;;;1.53;1.23;;;6.10;49.30;;;;;;5029185;28;20448;-51
2023/02/26 13:19:54;;;;;;;1.07;0.97;;;5.90;50.20;;;;;;5022463;28;20548;-54